sensor_id;sensor_type;location;lat;lon;timestamp;P1;durP1;ratioP1;P2;durP2;ratioP2
33421;SDS011;19763;55.798;37.782;2023-07-31T00:00:26;7.47;;;5.13;;
33421;SDS011;19763;55.798;37.782;2023-07-31T00:02:52;9.95;;;5.95;;
33421;SDS011;19763;55.798;37.782;2023-07-31T00:05:18;9.40;;;5.38;;
33421;SDS011;19763;55.798;37.782;2023-07-31T00:07:44;8.95;;;5.55;;
33421;SDS011;19763;55.798;37.782;2023-07-31T00:10:09;9.40;;;5.70;;
33421;SDS011;19763;55.798;37.782;2023-07-31T00:12:35;8.95;;;5.60;;
33421;SDS011;19763;55.798;37.782;2023-07-31T00:15:01;10.98;;;6.30;;
33421;SDS011;19763;55.798;37.782;2023-07-31T00:17:30;10.52;;;6.20;;
33421;SDS011;19763;55.798;37.782;2023-07-31T00:19:56;13.02;;;5.13;;
33421;SDS011;19763;55.798;37.782;2023-07-31T00:22:22;10.48;;;5.50;;
33421;SDS011;19763;55.798;37.782;2023-07-31T00:24:48;10.93;;;5.50;;
33421;SDS011;19763;55.798;37.782;2023-07-31T00:27:13;8.60;;;5.18;;
33421;SDS011;19763;55.798;37.782;2023-07-31T00:29:39;8.05;;;4.88;;
33421;SDS011;19763;55.798;37.782;2023-07-31T00:32:05;7.68;;;5.28;;
33421;SDS011;19763;55.798;37.782;2023-07-31T00:34:31;9.32;;;4.88;;
33421;SDS011;19763;55.798;37.782;2023-07-31T00:36:57;6.97;;;5.03;;
33421;SDS011;19763;55.798;37.782;2023-07-31T00:39:22;9.32;;;5.30;;
33421;SDS011;19763;55.798;37.782;2023-07-31T00:41:48;9.35;;;5.35;;
33421;SDS011;19763;55.798;37.782;2023-07-31T00:44:14;8.80;;;4.70;;
33421;SDS011;19763;55.798;37.782;2023-07-31T00:46:39;10.70;;;5.35;;
33421;SDS011;19763;55.798;37.782;2023-07-31T00:49:05;9.00;;;5.15;;
33421;SDS011;19763;55.798;37.782;2023-07-31T00:51:31;11.93;;;5.30;;
33421;SDS011;19763;55.798;37.782;2023-07-31T00:53:57;9.80;;;5.35;;
33421;SDS011;19763;55.798;37.782;2023-07-31T00:56:23;11.55;;;5.40;;
33421;SDS011;19763;55.798;37.782;2023-07-31T00:58:50;9.20;;;4.75;;
33421;SDS011;19763;55.798;37.782;2023-07-31T01:01:16;7.55;;;4.88;;
33421;SDS011;19763;55.798;37.782;2023-07-31T01:03:42;12.30;;;5.65;;
33421;SDS011;19763;55.798;37.782;2023-07-31T01:06:17;8.88;;;4.90;;
33421;SDS011;19763;55.798;37.782;2023-07-31T01:11:43;7.40;;;4.53;;
33421;SDS011;19763;55.798;37.782;2023-07-31T01:14:17;10.65;;;5.25;;
33421;SDS011;19763;55.798;37.782;2023-07-31T01:16:42;7.90;;;5.18;;
33421;SDS011;19763;55.798;37.782;2023-07-31T01:19:08;5.35;;;4.68;;
33421;SDS011;19763;55.798;37.782;2023-07-31T01:26:40;8.43;;;5.65;;
33421;SDS011;19763;55.798;37.782;2023-07-31T01:31:55;9.25;;;5.15;;
33421;SDS011;19763;55.798;37.782;2023-07-31T01:34:25;10.05;;;5.00;;
33421;SDS011;19763;55.798;37.782;2023-07-31T01:36:51;9.13;;;4.72;;
33421;SDS011;19763;55.798;37.782;2023-07-31T01:39:17;10.02;;;6.70;;
33421;SDS011;19763;55.798;37.782;2023-07-31T01:41:45;9.15;;;6.88;;
33421;SDS011;19763;55.798;37.782;2023-07-31T01:44:11;8.30;;;4.78;;
33421;SDS011;19763;55.798;37.782;2023-07-31T01:46:37;8.63;;;4.47;;
33421;SDS011;19763;55.798;37.782;2023-07-31T01:49:03;6.78;;;4.75;;
33421;SDS011;19763;55.798;37.782;2023-07-31T01:51:30;9.48;;;5.10;;
33421;SDS011;19763;55.798;37.782;2023-07-31T01:53:59;10.50;;;5.55;;
33421;SDS011;19763;55.798;37.782;2023-07-31T01:56:25;6.30;;;4.80;;
33421;SDS011;19763;55.798;37.782;2023-07-31T01:58:51;7.25;;;5.13;;
33421;SDS011;19763;55.798;37.782;2023-07-31T02:01:17;8.75;;;5.22;;
33421;SDS011;19763;55.798;37.782;2023-07-31T02:03:42;6.13;;;4.53;;
33421;SDS011;19763;55.798;37.782;2023-07-31T02:06:08;7.00;;;4.50;;
33421;SDS011;19763;55.798;37.782;2023-07-31T02:08:34;8.98;;;4.80;;
33421;SDS011;19763;55.798;37.782;2023-07-31T02:11:00;8.85;;;4.60;;
33421;SDS011;19763;55.798;37.782;2023-07-31T02:13:25;8.77;;;4.55;;
33421;SDS011;19763;55.798;37.782;2023-07-31T02:15:51;7.85;;;4.63;;
33421;SDS011;19763;55.798;37.782;2023-07-31T02:18:17;5.75;;;4.53;;
33421;SDS011;19763;55.798;37.782;2023-07-31T02:20:43;7.90;;;5.15;;
33421;SDS011;19763;55.798;37.782;2023-07-31T02:23:11;8.65;;;4.68;;
33421;SDS011;19763;55.798;37.782;2023-07-31T02:25:37;9.07;;;5.10;;
33421;SDS011;19763;55.798;37.782;2023-07-31T02:28:02;9.77;;;4.78;;
33421;SDS011;19763;55.798;37.782;2023-07-31T02:30:28;7.47;;;4.72;;
33421;SDS011;19763;55.798;37.782;2023-07-31T02:32:54;8.63;;;4.20;;
33421;SDS011;19763;55.798;37.782;2023-07-31T02:35:20;7.15;;;4.43;;
33421;SDS011;19763;55.798;37.782;2023-07-31T02:37:46;13.30;;;5.10;;
33421;SDS011;19763;55.798;37.782;2023-07-31T02:40:11;8.75;;;5.25;;
33421;SDS011;19763;55.798;37.782;2023-07-31T02:42:37;8.85;;;5.55;;
33421;SDS011;19763;55.798;37.782;2023-07-31T02:45:03;10.85;;;5.70;;
33421;SDS011;19763;55.798;37.782;2023-07-31T02:47:31;8.55;;;5.30;;
33421;SDS011;19763;55.798;37.782;2023-07-31T02:49:57;12.23;;;4.93;;
33421;SDS011;19763;55.798;37.782;2023-07-31T02:52:24;11.02;;;4.93;;
33421;SDS011;19763;55.798;37.782;2023-07-31T02:54:50;13.13;;;8.40;;
33421;SDS011;19763;55.798;37.782;2023-07-31T02:57:15;12.80;;;6.00;;
33421;SDS011;19763;55.798;37.782;2023-07-31T02:59:41;13.50;;;5.60;;
33421;SDS011;19763;55.798;37.782;2023-07-31T03:02:07;10.30;;;5.18;;
33421;SDS011;19763;55.798;37.782;2023-07-31T03:04:33;8.18;;;5.15;;
33421;SDS011;19763;55.798;37.782;2023-07-31T03:06:58;10.45;;;5.10;;
33421;SDS011;19763;55.798;37.782;2023-07-31T03:09:24;10.85;;;5.40;;
33421;SDS011;19763;55.798;37.782;2023-07-31T03:11:50;10.10;;;5.38;;
33421;SDS011;19763;55.798;37.782;2023-07-31T03:14:15;9.45;;;4.70;;
33421;SDS011;19763;55.798;37.782;2023-07-31T03:16:41;12.63;;;7.28;;
33421;SDS011;19763;55.798;37.782;2023-07-31T03:19:07;8.95;;;5.35;;
33421;SDS011;19763;55.798;37.782;2023-07-31T03:21:32;13.98;;;7.43;;
33421;SDS011;19763;55.798;37.782;2023-07-31T03:23:58;13.57;;;6.75;;
33421;SDS011;19763;55.798;37.782;2023-07-31T03:26:23;15.48;;;6.20;;
33421;SDS011;19763;55.798;37.782;2023-07-31T03:28:49;10.80;;;5.15;;
33421;SDS011;19763;55.798;37.782;2023-07-31T03:31:15;8.38;;;4.63;;
33421;SDS011;19763;55.798;37.782;2023-07-31T03:33:40;11.95;;;6.10;;
33421;SDS011;19763;55.798;37.782;2023-07-31T03:36:06;12.55;;;5.78;;
33421;SDS011;19763;55.798;37.782;2023-07-31T03:38:33;7.40;;;4.35;;
33421;SDS011;19763;55.798;37.782;2023-07-31T03:40:59;8.90;;;4.30;;
33421;SDS011;19763;55.798;37.782;2023-07-31T03:43:25;6.43;;;4.80;;
33421;SDS011;19763;55.798;37.782;2023-07-31T03:45:51;8.20;;;4.47;;
33421;SDS011;19763;55.798;37.782;2023-07-31T03:48:17;6.35;;;4.20;;
33421;SDS011;19763;55.798;37.782;2023-07-31T03:50:42;6.85;;;4.45;;
33421;SDS011;19763;55.798;37.782;2023-07-31T03:53:08;6.57;;;4.43;;
33421;SDS011;19763;55.798;37.782;2023-07-31T03:55:34;6.10;;;3.78;;
33421;SDS011;19763;55.798;37.782;2023-07-31T03:57:59;6.95;;;4.97;;
33421;SDS011;19763;55.798;37.782;2023-07-31T04:00:26;8.68;;;5.03;;
33421;SDS011;19763;55.798;37.782;2023-07-31T04:02:52;10.82;;;5.30;;
33421;SDS011;19763;55.798;37.782;2023-07-31T04:05:18;6.60;;;4.35;;
33421;SDS011;19763;55.798;37.782;2023-07-31T04:07:44;7.00;;;5.30;;
33421;SDS011;19763;55.798;37.782;2023-07-31T04:10:10;7.13;;;4.10;;
33421;SDS011;19763;55.798;37.782;2023-07-31T04:12:35;7.80;;;3.88;;
33421;SDS011;19763;55.798;37.782;2023-07-31T04:15:01;6.78;;;4.28;;
33421;SDS011;19763;55.798;37.782;2023-07-31T04:17:31;5.43;;;3.80;;
33421;SDS011;19763;55.798;37.782;2023-07-31T04:19:57;8.45;;;4.15;;
33421;SDS011;19763;55.798;37.782;2023-07-31T04:22:23;7.68;;;4.20;;
33421;SDS011;19763;55.798;37.782;2023-07-31T04:24:48;4.78;;;3.55;;
33421;SDS011;19763;55.798;37.782;2023-07-31T04:27:14;6.97;;;3.88;;
33421;SDS011;19763;55.798;37.782;2023-07-31T04:29:40;6.75;;;4.18;;
33421;SDS011;19763;55.798;37.782;2023-07-31T04:32:08;10.80;;;4.60;;
33421;SDS011;19763;55.798;37.782;2023-07-31T04:34:33;7.55;;;3.50;;
33421;SDS011;19763;55.798;37.782;2023-07-31T04:36:59;6.60;;;3.80;;
33421;SDS011;19763;55.798;37.782;2023-07-31T04:39:25;5.80;;;3.80;;
33421;SDS011;19763;55.798;37.782;2023-07-31T04:41:50;8.35;;;3.78;;
33421;SDS011;19763;55.798;37.782;2023-07-31T04:44:16;6.90;;;3.28;;
33421;SDS011;19763;55.798;37.782;2023-07-31T04:46:41;4.07;;;3.40;;
33421;SDS011;19763;55.798;37.782;2023-07-31T04:49:07;4.57;;;3.17;;
33421;SDS011;19763;55.798;37.782;2023-07-31T04:51:33;5.53;;;3.60;;
33421;SDS011;19763;55.798;37.782;2023-07-31T04:53:58;6.63;;;3.53;;
33421;SDS011;19763;55.798;37.782;2023-07-31T04:56:24;7.65;;;3.42;;
33421;SDS011;19763;55.798;37.782;2023-07-31T04:58:50;7.65;;;3.80;;
33421;SDS011;19763;55.798;37.782;2023-07-31T05:01:15;7.85;;;3.70;;
33421;SDS011;19763;55.798;37.782;2023-07-31T05:03:41;8.70;;;3.50;;
33421;SDS011;19763;55.798;37.782;2023-07-31T05:06:06;6.50;;;3.42;;
33421;SDS011;19763;55.798;37.782;2023-07-31T05:08:32;7.72;;;3.47;;
33421;SDS011;19763;55.798;37.782;2023-07-31T05:10:58;10.10;;;4.35;;
33421;SDS011;19763;55.798;37.782;2023-07-31T05:13:24;8.80;;;3.35;;
33421;SDS011;19763;55.798;37.782;2023-07-31T05:15:50;7.20;;;3.67;;
33421;SDS011;19763;55.798;37.782;2023-07-31T05:18:15;6.25;;;3.60;;
33421;SDS011;19763;55.798;37.782;2023-07-31T05:20:41;6.75;;;2.88;;
33421;SDS011;19763;55.798;37.782;2023-07-31T05:23:07;7.22;;;3.38;;
33421;SDS011;19763;55.798;37.782;2023-07-31T05:25:33;9.50;;;3.78;;
33421;SDS011;19763;55.798;37.782;2023-07-31T05:27:58;8.07;;;3.55;;
33421;SDS011;19763;55.798;37.782;2023-07-31T05:30:24;10.25;;;3.60;;
33421;SDS011;19763;55.798;37.782;2023-07-31T05:32:50;6.72;;;3.22;;
33421;SDS011;19763;55.798;37.782;2023-07-31T05:35:15;3.75;;;3.05;;
33421;SDS011;19763;55.798;37.782;2023-07-31T05:37:41;7.40;;;3.45;;
33421;SDS011;19763;55.798;37.782;2023-07-31T05:40:07;6.30;;;2.90;;
33421;SDS011;19763;55.798;37.782;2023-07-31T05:42:33;7.47;;;3.10;;
33421;SDS011;19763;55.798;37.782;2023-07-31T05:44:59;6.82;;;2.53;;
33421;SDS011;19763;55.798;37.782;2023-07-31T05:47:25;4.25;;;2.80;;
33421;SDS011;19763;55.798;37.782;2023-07-31T05:49:51;4.88;;;3.13;;
33421;SDS011;19763;55.798;37.782;2023-07-31T05:52:18;5.93;;;2.58;;
33421;SDS011;19763;55.798;37.782;2023-07-31T05:54:44;4.32;;;3.15;;
33421;SDS011;19763;55.798;37.782;2023-07-31T05:57:11;6.20;;;3.05;;
33421;SDS011;19763;55.798;37.782;2023-07-31T05:59:37;4.10;;;3.10;;
33421;SDS011;19763;55.798;37.782;2023-07-31T06:02:03;3.90;;;2.80;;
33421;SDS011;19763;55.798;37.782;2023-07-31T06:04:28;8.55;;;2.78;;
33421;SDS011;19763;55.798;37.782;2023-07-31T06:06:54;4.80;;;2.60;;
33421;SDS011;19763;55.798;37.782;2023-07-31T06:09:20;4.30;;;3.20;;
33421;SDS011;19763;55.798;37.782;2023-07-31T06:11:46;4.65;;;3.13;;
33421;SDS011;19763;55.798;37.782;2023-07-31T06:14:11;5.65;;;3.30;;
33421;SDS011;19763;55.798;37.782;2023-07-31T06:16:37;4.38;;;2.65;;
33421;SDS011;19763;55.798;37.782;2023-07-31T06:19:03;7.03;;;2.67;;
33421;SDS011;19763;55.798;37.782;2023-07-31T06:21:28;6.13;;;2.88;;
33421;SDS011;19763;55.798;37.782;2023-07-31T06:23:55;3.80;;;2.60;;
33421;SDS011;19763;55.798;37.782;2023-07-31T06:26:20;10.30;;;2.90;;
33421;SDS011;19763;55.798;37.782;2023-07-31T06:28:46;4.18;;;2.67;;
33421;SDS011;19763;55.798;37.782;2023-07-31T06:31:11;4.22;;;2.08;;
33421;SDS011;19763;55.798;37.782;2023-07-31T06:33:37;3.35;;;1.83;;
33421;SDS011;19763;55.798;37.782;2023-07-31T06:36:03;4.15;;;2.00;;
33421;SDS011;19763;55.798;37.782;2023-07-31T06:38:29;2.35;;;2.03;;
33421;SDS011;19763;55.798;37.782;2023-07-31T06:40:54;2.22;;;1.88;;
33421;SDS011;19763;55.798;37.782;2023-07-31T06:43:20;6.93;;;4.68;;
33421;SDS011;19763;55.798;37.782;2023-07-31T06:45:46;6.82;;;2.80;;
33421;SDS011;19763;55.798;37.782;2023-07-31T06:48:15;4.60;;;2.47;;
33421;SDS011;19763;55.798;37.782;2023-07-31T06:50:40;3.30;;;2.10;;
33421;SDS011;19763;55.798;37.782;2023-07-31T06:53:06;3.58;;;2.40;;
33421;SDS011;19763;55.798;37.782;2023-07-31T06:55:32;4.72;;;2.20;;
33421;SDS011;19763;55.798;37.782;2023-07-31T06:57:58;3.55;;;2.13;;
33421;SDS011;19763;55.798;37.782;2023-07-31T07:00:23;1.98;;;1.77;;
33421;SDS011;19763;55.798;37.782;2023-07-31T07:02:49;3.47;;;1.83;;
33421;SDS011;19763;55.798;37.782;2023-07-31T07:05:15;2.25;;;2.00;;
33421;SDS011;19763;55.798;37.782;2023-07-31T07:07:42;2.85;;;2.08;;
33421;SDS011;19763;55.798;37.782;2023-07-31T07:10:08;3.22;;;2.10;;
33421;SDS011;19763;55.798;37.782;2023-07-31T07:12:35;3.17;;;2.33;;
33421;SDS011;19763;55.798;37.782;2023-07-31T07:15:01;3.63;;;2.40;;
33421;SDS011;19763;55.798;37.782;2023-07-31T07:17:28;3.35;;;2.30;;
33421;SDS011;19763;55.798;37.782;2023-07-31T07:19:58;5.95;;;2.20;;
33421;SDS011;19763;55.798;37.782;2023-07-31T07:22:25;5.25;;;2.90;;
33421;SDS011;19763;55.798;37.782;2023-07-31T07:24:52;4.45;;;2.42;;
33421;SDS011;19763;55.798;37.782;2023-07-31T07:27:17;2.85;;;1.77;;
33421;SDS011;19763;55.798;37.782;2023-07-31T07:29:43;5.18;;;2.08;;
33421;SDS011;19763;55.798;37.782;2023-07-31T07:32:11;4.43;;;2.33;;
33421;SDS011;19763;55.798;37.782;2023-07-31T07:34:37;5.10;;;1.83;;
33421;SDS011;19763;55.798;37.782;2023-07-31T07:37:03;2.65;;;2.00;;
33421;SDS011;19763;55.798;37.782;2023-07-31T07:39:29;2.55;;;2.08;;
33421;SDS011;19763;55.798;37.782;2023-07-31T07:41:55;5.93;;;2.10;;
33421;SDS011;19763;55.798;37.782;2023-07-31T07:44:20;2.10;;;1.80;;
33421;SDS011;19763;55.798;37.782;2023-07-31T07:46:46;3.25;;;1.85;;
33421;SDS011;19763;55.798;37.782;2023-07-31T07:49:12;3.08;;;2.13;;
33421;SDS011;19763;55.798;37.782;2023-07-31T07:51:38;2.63;;;1.60;;
33421;SDS011;19763;55.798;37.782;2023-07-31T07:54:04;7.93;;;2.63;;
33421;SDS011;19763;55.798;37.782;2023-07-31T07:56:29;2.45;;;1.90;;
33421;SDS011;19763;55.798;37.782;2023-07-31T07:58:55;4.88;;;1.90;;
33421;SDS011;19763;55.798;37.782;2023-07-31T08:01:21;4.68;;;1.85;;
33421;SDS011;19763;55.798;37.782;2023-07-31T08:03:47;2.95;;;1.98;;
33421;SDS011;19763;55.798;37.782;2023-07-31T08:06:13;4.10;;;1.88;;
33421;SDS011;19763;55.798;37.782;2023-07-31T08:08:39;2.05;;;1.70;;
33421;SDS011;19763;55.798;37.782;2023-07-31T08:11:05;2.75;;;1.77;;
33421;SDS011;19763;55.798;37.782;2023-07-31T08:13:31;6.70;;;2.20;;
33421;SDS011;19763;55.798;37.782;2023-07-31T08:15:57;4.43;;;2.05;;
33421;SDS011;19763;55.798;37.782;2023-07-31T08:18:22;4.43;;;1.83;;
33421;SDS011;19763;55.798;37.782;2023-07-31T08:20:48;2.88;;;2.00;;
33421;SDS011;19763;55.798;37.782;2023-07-31T08:23:14;3.05;;;1.98;;
33421;SDS011;19763;55.798;37.782;2023-07-31T08:25:39;3.13;;;2.13;;
33421;SDS011;19763;55.798;37.782;2023-07-31T08:28:05;5.45;;;2.30;;
33421;SDS011;19763;55.798;37.782;2023-07-31T08:30:32;5.13;;;2.10;;
33421;SDS011;19763;55.798;37.782;2023-07-31T08:33:01;3.75;;;1.67;;
33421;SDS011;19763;55.798;37.782;2023-07-31T08:35:27;3.55;;;1.70;;
33421;SDS011;19763;55.798;37.782;2023-07-31T08:37:54;4.57;;;1.80;;
33421;SDS011;19763;55.798;37.782;2023-07-31T08:40:20;5.88;;;2.10;;
33421;SDS011;19763;55.798;37.782;2023-07-31T08:42:47;2.45;;;1.60;;
33421;SDS011;19763;55.798;37.782;2023-07-31T08:45:18;4.10;;;2.00;;
33421;SDS011;19763;55.798;37.782;2023-07-31T08:47:46;2.10;;;1.90;;
33421;SDS011;19763;55.798;37.782;2023-07-31T08:50:16;2.20;;;1.75;;
33421;SDS011;19763;55.798;37.782;2023-07-31T08:52:43;3.78;;;1.75;;
33421;SDS011;19763;55.798;37.782;2023-07-31T08:55:10;3.78;;;1.90;;
33421;SDS011;19763;55.798;37.782;2023-07-31T08:57:37;3.28;;;2.10;;
33421;SDS011;19763;55.798;37.782;2023-07-31T09:00:04;5.10;;;2.10;;
33421;SDS011;19763;55.798;37.782;2023-07-31T09:02:54;3.80;;;1.80;;
33421;SDS011;19763;55.798;37.782;2023-07-31T09:05:24;3.88;;;2.13;;
33421;SDS011;19763;55.798;37.782;2023-07-31T09:07:52;2.72;;;1.65;;
33421;SDS011;19763;55.798;37.782;2023-07-31T09:10:20;3.42;;;1.95;;
33421;SDS011;19763;55.798;37.782;2023-07-31T09:12:45;7.70;;;2.17;;
33421;SDS011;19763;55.798;37.782;2023-07-31T09:15:12;6.07;;;2.03;;
33421;SDS011;19763;55.798;37.782;2023-07-31T09:17:38;4.57;;;1.90;;
33421;SDS011;19763;55.798;37.782;2023-07-31T09:20:19;4.90;;;1.90;;
33421;SDS011;19763;55.798;37.782;2023-07-31T09:22:47;5.00;;;2.10;;
33421;SDS011;19763;55.798;37.782;2023-07-31T09:25:23;3.70;;;1.98;;
33421;SDS011;19763;55.798;37.782;2023-07-31T09:27:52;4.85;;;2.15;;
33421;SDS011;19763;55.798;37.782;2023-07-31T09:30:20;2.58;;;1.70;;
33421;SDS011;19763;55.798;37.782;2023-07-31T09:32:48;5.20;;;2.10;;
33421;SDS011;19763;55.798;37.782;2023-07-31T09:35:21;2.55;;;1.98;;
33421;SDS011;19763;55.798;37.782;2023-07-31T09:37:57;3.75;;;2.08;;
33421;SDS011;19763;55.798;37.782;2023-07-31T09:40:25;3.10;;;1.92;;
33421;SDS011;19763;55.798;37.782;2023-07-31T09:42:52;2.55;;;2.00;;
33421;SDS011;19763;55.798;37.782;2023-07-31T09:45:19;2.28;;;2.00;;
33421;SDS011;19763;55.798;37.782;2023-07-31T09:47:48;3.75;;;2.25;;
33421;SDS011;19763;55.798;37.782;2023-07-31T09:50:14;4.10;;;2.13;;
33421;SDS011;19763;55.798;37.782;2023-07-31T09:52:41;3.15;;;2.08;;
33421;SDS011;19763;55.798;37.782;2023-07-31T09:55:08;2.72;;;2.00;;
33421;SDS011;19763;55.798;37.782;2023-07-31T09:57:36;2.17;;;1.90;;
33421;SDS011;19763;55.798;37.782;2023-07-31T10:00:05;3.40;;;2.10;;
33421;SDS011;19763;55.798;37.782;2023-07-31T10:02:34;5.05;;;2.40;;
33421;SDS011;19763;55.798;37.782;2023-07-31T10:05:02;2.85;;;2.13;;
33421;SDS011;19763;55.798;37.782;2023-07-31T10:07:30;3.28;;;2.08;;
33421;SDS011;19763;55.798;37.782;2023-07-31T10:09:59;3.28;;;2.22;;
33421;SDS011;19763;55.798;37.782;2023-07-31T10:12:26;2.50;;;2.25;;
33421;SDS011;19763;55.798;37.782;2023-07-31T10:14:55;4.10;;;2.25;;
33421;SDS011;19763;55.798;37.782;2023-07-31T10:17:24;2.50;;;2.30;;
33421;SDS011;19763;55.798;37.782;2023-07-31T10:19:51;2.70;;;2.13;;
33421;SDS011;19763;55.798;37.782;2023-07-31T10:22:21;6.45;;;3.03;;
33421;SDS011;19763;55.798;37.782;2023-07-31T10:24:47;3.30;;;2.22;;
33421;SDS011;19763;55.798;37.782;2023-07-31T10:27:15;3.70;;;2.30;;
33421;SDS011;19763;55.798;37.782;2023-07-31T10:29:41;3.92;;;2.33;;
33421;SDS011;19763;55.798;37.782;2023-07-31T10:32:09;3.30;;;2.30;;
33421;SDS011;19763;55.798;37.782;2023-07-31T10:34:38;3.40;;;2.80;;
33421;SDS011;19763;55.798;37.782;2023-07-31T10:39:59;3.55;;;2.30;;
33421;SDS011;19763;55.798;37.782;2023-07-31T10:42:29;3.10;;;2.50;;
33421;SDS011;19763;55.798;37.782;2023-07-31T10:45:00;3.08;;;2.20;;
33421;SDS011;19763;55.798;37.782;2023-07-31T10:47:43;2.95;;;2.00;;
33421;SDS011;19763;55.798;37.782;2023-07-31T10:50:28;4.20;;;2.50;;
33421;SDS011;19763;55.798;37.782;2023-07-31T10:52:56;4.13;;;2.55;;
33421;SDS011;19763;55.798;37.782;2023-07-31T10:55:41;4.55;;;2.45;;
33421;SDS011;19763;55.798;37.782;2023-07-31T10:58:11;4.85;;;2.60;;
33421;SDS011;19763;55.798;37.782;2023-07-31T11:00:41;2.80;;;2.47;;
33421;SDS011;19763;55.798;37.782;2023-07-31T11:08:19;3.63;;;2.35;;
33421;SDS011;19763;55.798;37.782;2023-07-31T11:16:21;5.90;;;2.50;;
33421;SDS011;19763;55.798;37.782;2023-07-31T11:18:48;7.35;;;2.47;;
33421;SDS011;19763;55.798;37.782;2023-07-31T11:21:15;5.28;;;2.38;;
33421;SDS011;19763;55.798;37.782;2023-07-31T11:23:49;4.50;;;2.33;;
33421;SDS011;19763;55.798;37.782;2023-07-31T11:26:19;3.83;;;2.75;;
33421;SDS011;19763;55.798;37.782;2023-07-31T11:28:48;6.07;;;2.50;;
33421;SDS011;19763;55.798;37.782;2023-07-31T11:31:15;2.33;;;2.13;;
33421;SDS011;19763;55.798;37.782;2023-07-31T11:33:42;4.05;;;2.40;;
33421;SDS011;19763;55.798;37.782;2023-07-31T11:36:14;3.88;;;2.30;;
33421;SDS011;19763;55.798;37.782;2023-07-31T11:38:44;3.83;;;2.10;;
33421;SDS011;19763;55.798;37.782;2023-07-31T11:41:10;4.15;;;3.00;;
33421;SDS011;19763;55.798;37.782;2023-07-31T11:43:35;6.78;;;2.83;;
33421;SDS011;19763;55.798;37.782;2023-07-31T11:46:04;2.88;;;2.60;;
33421;SDS011;19763;55.798;37.782;2023-07-31T11:48:32;4.53;;;2.60;;
33421;SDS011;19763;55.798;37.782;2023-07-31T11:51:04;3.25;;;2.20;;
33421;SDS011;19763;55.798;37.782;2023-07-31T11:56:36;4.90;;;2.67;;
33421;SDS011;19763;55.798;37.782;2023-07-31T11:59:02;4.57;;;2.72;;
33421;SDS011;19763;55.798;37.782;2023-07-31T12:01:30;2.85;;;2.45;;
33421;SDS011;19763;55.798;37.782;2023-07-31T12:03:56;2.92;;;2.67;;
33421;SDS011;19763;55.798;37.782;2023-07-31T12:06:32;6.07;;;2.63;;
33421;SDS011;19763;55.798;37.782;2023-07-31T12:09:03;3.70;;;2.83;;
33421;SDS011;19763;55.798;37.782;2023-07-31T12:11:29;3.80;;;2.50;;
33421;SDS011;19763;55.798;37.782;2023-07-31T12:13:54;5.20;;;2.58;;
33421;SDS011;19763;55.798;37.782;2023-07-31T12:16:20;3.53;;;2.53;;
33421;SDS011;19763;55.798;37.782;2023-07-31T12:18:48;3.38;;;2.20;;
33421;SDS011;19763;55.798;37.782;2023-07-31T12:21:14;6.68;;;2.80;;
33421;SDS011;19763;55.798;37.782;2023-07-31T12:23:41;5.00;;;2.60;;
33421;SDS011;19763;55.798;37.782;2023-07-31T12:26:13;6.43;;;2.75;;
33421;SDS011;19763;55.798;37.782;2023-07-31T12:28:47;4.03;;;2.90;;
33421;SDS011;19763;55.798;37.782;2023-07-31T12:31:15;4.15;;;3.15;;
33421;SDS011;19763;55.798;37.782;2023-07-31T12:33:46;4.10;;;2.90;;
33421;SDS011;19763;55.798;37.782;2023-07-31T12:36:13;2.70;;;2.50;;
33421;SDS011;19763;55.798;37.782;2023-07-31T12:38:44;3.67;;;2.90;;
33421;SDS011;19763;55.798;37.782;2023-07-31T12:41:10;3.58;;;2.65;;
33421;SDS011;19763;55.798;37.782;2023-07-31T12:43:39;4.13;;;2.92;;
33421;SDS011;19763;55.798;37.782;2023-07-31T12:46:06;3.70;;;3.20;;
33421;SDS011;19763;55.798;37.782;2023-07-31T12:48:36;3.30;;;2.83;;
33421;SDS011;19763;55.798;37.782;2023-07-31T12:51:03;3.53;;;3.00;;
33421;SDS011;19763;55.798;37.782;2023-07-31T12:53:29;6.30;;;2.97;;
33421;SDS011;19763;55.798;37.782;2023-07-31T12:55:55;6.03;;;2.70;;
33421;SDS011;19763;55.798;37.782;2023-07-31T12:58:22;4.50;;;2.60;;
33421;SDS011;19763;55.798;37.782;2023-07-31T13:00:48;4.20;;;2.92;;
33421;SDS011;19763;55.798;37.782;2023-07-31T13:03:14;11.20;;;2.85;;
33421;SDS011;19763;55.798;37.782;2023-07-31T13:05:39;7.30;;;3.10;;
33421;SDS011;19763;55.798;37.782;2023-07-31T13:08:05;6.90;;;3.20;;
33421;SDS011;19763;55.798;37.782;2023-07-31T13:10:31;4.57;;;2.95;;
33421;SDS011;19763;55.798;37.782;2023-07-31T13:12:57;7.28;;;2.97;;
33421;SDS011;19763;55.798;37.782;2023-07-31T13:15:23;3.97;;;2.90;;
33421;SDS011;19763;55.798;37.782;2023-07-31T13:17:48;8.13;;;2.92;;
33421;SDS011;19763;55.798;37.782;2023-07-31T13:20:14;6.45;;;2.75;;
33421;SDS011;19763;55.798;37.782;2023-07-31T13:22:40;7.25;;;3.20;;
33421;SDS011;19763;55.798;37.782;2023-07-31T13:25:06;5.43;;;2.80;;
33421;SDS011;19763;55.798;37.782;2023-07-31T13:27:32;5.30;;;2.50;;
33421;SDS011;19763;55.798;37.782;2023-07-31T13:29:59;3.28;;;2.70;;
33421;SDS011;19763;55.798;37.782;2023-07-31T13:32:24;5.38;;;2.83;;
33421;SDS011;19763;55.798;37.782;2023-07-31T13:34:51;6.22;;;2.70;;
33421;SDS011;19763;55.798;37.782;2023-07-31T13:37:17;4.32;;;2.60;;
33421;SDS011;19763;55.798;37.782;2023-07-31T13:39:42;6.07;;;2.70;;
33421;SDS011;19763;55.798;37.782;2023-07-31T13:42:08;6.55;;;3.03;;
33421;SDS011;19763;55.798;37.782;2023-07-31T13:44:37;6.20;;;2.90;;
33421;SDS011;19763;55.798;37.782;2023-07-31T13:47:03;6.20;;;3.03;;
33421;SDS011;19763;55.798;37.782;2023-07-31T13:49:29;5.53;;;3.05;;
33421;SDS011;19763;55.798;37.782;2023-07-31T13:51:56;7.03;;;3.30;;
33421;SDS011;19763;55.798;37.782;2023-07-31T13:54:22;9.85;;;3.00;;
33421;SDS011;19763;55.798;37.782;2023-07-31T13:56:49;6.35;;;3.00;;
33421;SDS011;19763;55.798;37.782;2023-07-31T13:59:14;8.93;;;3.10;;
33421;SDS011;19763;55.798;37.782;2023-07-31T14:01:42;4.55;;;3.03;;
33421;SDS011;19763;55.798;37.782;2023-07-31T14:04:08;5.47;;;2.78;;
33421;SDS011;19763;55.798;37.782;2023-07-31T14:06:34;5.15;;;3.20;;
33421;SDS011;19763;55.798;37.782;2023-07-31T14:09:00;7.28;;;3.40;;
33421;SDS011;19763;55.798;37.782;2023-07-31T14:11:26;4.78;;;2.90;;
33421;SDS011;19763;55.798;37.782;2023-07-31T14:13:52;9.85;;;3.45;;
33421;SDS011;19763;55.798;37.782;2023-07-31T14:16:18;6.35;;;3.05;;
33421;SDS011;19763;55.798;37.782;2023-07-31T14:18:43;9.30;;;3.22;;
33421;SDS011;19763;55.798;37.782;2023-07-31T14:21:11;6.40;;;3.13;;
33421;SDS011;19763;55.798;37.782;2023-07-31T14:23:37;7.32;;;3.08;;
33421;SDS011;19763;55.798;37.782;2023-07-31T14:26:03;4.80;;;3.00;;
33421;SDS011;19763;55.798;37.782;2023-07-31T14:28:28;8.20;;;3.45;;
33421;SDS011;19763;55.798;37.782;2023-07-31T14:30:54;6.20;;;3.05;;
33421;SDS011;19763;55.798;37.782;2023-07-31T14:33:20;9.90;;;2.97;;
33421;SDS011;19763;55.798;37.782;2023-07-31T14:35:45;7.70;;;3.35;;
33421;SDS011;19763;55.798;37.782;2023-07-31T14:38:11;5.40;;;2.67;;
33421;SDS011;19763;55.798;37.782;2023-07-31T14:40:37;11.10;;;3.20;;
33421;SDS011;19763;55.798;37.782;2023-07-31T14:43:03;6.05;;;2.92;;
33421;SDS011;19763;55.798;37.782;2023-07-31T14:45:29;4.63;;;2.97;;
33421;SDS011;19763;55.798;37.782;2023-07-31T14:47:55;9.27;;;3.35;;
33421;SDS011;19763;55.798;37.782;2023-07-31T14:50:21;7.45;;;3.30;;
33421;SDS011;19763;55.798;37.782;2023-07-31T14:52:47;5.07;;;3.45;;
33421;SDS011;19763;55.798;37.782;2023-07-31T14:55:13;3.85;;;3.00;;
33421;SDS011;19763;55.798;37.782;2023-07-31T14:57:39;8.73;;;3.10;;